sensor_id;sensor_type;location;lat;lon;timestamp;pressure;altitude;pressure_sealevel;temperature;humidity
41686;BME280;27370;42.764;23.432;2022-11-21T00:00:24;94258.31;;;10.24;100.00
41686;BME280;27370;42.764;23.432;2022-11-21T00:02:49;94248.25;;;10.24;100.00
41686;BME280;27370;42.764;23.432;2022-11-21T00:05:15;94262.81;;;10.39;100.00
41686;BME280;27370;42.764;23.432;2022-11-21T00:07:41;94243.53;;;10.37;100.00
41686;BME280;27370;42.764;23.432;2022-11-21T00:10:07;94255.78;;;10.42;100.00
41686;BME280;27370;42.764;23.432;2022-11-21T00:12:33;94266.59;;;10.42;100.00
41686;BME280;27370;42.764;23.432;2022-11-21T00:14:58;94260.44;;;10.41;100.00
41686;BME280;27370;42.764;23.432;2022-11-21T00:17:24;94245.38;;;10.40;100.00
41686;BME280;27370;42.764;23.432;2022-11-21T00:19:49;94248.50;;;10.52;100.00
41686;BME280;27370;42.764;23.432;2022-11-21T00:22:15;94235.75;;;10.39;100.00
41686;BME280;27370;42.764;23.432;2022-11-21T00:24:40;94232.75;;;10.59;100.00
41686;BME280;27370;42.764;23.432;2022-11-21T00:27:06;94225.06;;;10.58;100.00
41686;BME280;27370;42.764;23.432;2022-11-21T00:29:31;94224.41;;;10.66;100.00
41686;BME280;27370;42.764;23.432;2022-11-21T00:31:57;94220.09;;;10.56;100.00
41686;BME280;27370;42.764;23.432;2022-11-21T00:34:22;94201.09;;;10.69;100.00
41686;BME280;27370;42.764;23.432;2022-11-21T00:36:47;94198.28;;;10.72;100.00
41686;BME280;27370;42.764;23.432;2022-11-21T00:39:13;94191.34;;;10.71;100.00
41686;BME280;27370;42.764;23.432;2022-11-21T00:41:38;94193.03;;;10.78;100.00
41686;BME280;27370;42.764;23.432;2022-11-21T00:44:04;94184.78;;;10.82;100.00
41686;BME280;27370;42.764;23.432;2022-11-21T00:46:30;94170.44;;;10.94;100.00
41686;BME280;27370;42.764;23.432;2022-11-21T00:48:55;94173.88;;;10.94;100.00
41686;BME280;27370;42.764;23.432;2022-11-21T00:51:21;94163.38;;;10.74;100.00
41686;BME280;27370;42.764;23.432;2022-11-21T00:53:46;94178.88;;;10.52;100.00
41686;BME280;27370;42.764;23.432;2022-11-21T00:56:12;94211.66;;;10.54;100.00
41686;BME280;27370;42.764;23.432;2022-11-21T00:58:37;94232.31;;;10.61;100.00
41686;BME280;27370;42.764;23.432;2022-11-21T01:01:09;94233.72;;;10.65;100.00
41686;BME280;27370;42.764;23.432;2022-11-21T01:03:36;94209.91;;;10.60;100.00
41686;BME280;27370;42.764;23.432;2022-11-21T01:06:04;94226.59;;;10.81;100.00
41686;BME280;27370;42.764;23.432;2022-11-21T01:08:30;94213.63;;;10.54;100.00
41686;BME280;27370;42.764;23.432;2022-11-21T01:10:56;94186.81;;;10.47;100.00
41686;BME280;27370;42.764;23.432;2022-11-21T01:13:21;94180.25;;;10.35;100.00
41686;BME280;27370;42.764;23.432;2022-11-21T01:15:47;94189.16;;;10.23;100.00
41686;BME280;27370;42.764;23.432;2022-11-21T01:18:13;94179.16;;;10.32;100.00
41686;BME280;27370;42.764;23.432;2022-11-21T01:20:39;94178.97;;;10.27;100.00
41686;BME280;27370;42.764;23.432;2022-11-21T01:23:04;94176.72;;;10.25;100.00
41686;BME280;27370;42.764;23.432;2022-11-21T01:25:33;94180.50;;;10.28;100.00
41686;BME280;27370;42.764;23.432;2022-11-21T01:27:58;94185.91;;;10.15;100.00
41686;BME280;27370;42.764;23.432;2022-11-21T01:30:24;94202.38;;;10.08;100.00
41686;BME280;27370;42.764;23.432;2022-11-21T01:32:49;94198.53;;;9.96;100.00
41686;BME280;27370;42.764;23.432;2022-11-21T01:35:15;94212.25;;;9.89;100.00
41686;BME280;27370;42.764;23.432;2022-11-21T01:37:41;94173.03;;;10.19;100.00
41686;BME280;27370;42.764;23.432;2022-11-21T01:40:07;94182.38;;;10.40;100.00
41686;BME280;27370;42.764;23.432;2022-11-21T01:43:05;94183.91;;;10.63;100.00
41686;BME280;27370;42.764;23.432;2022-11-21T01:48:45;94172.72;;;10.73;100.00
41686;BME280;27370;42.764;23.432;2022-11-21T01:53:49;94150.59;;;10.75;100.00
41686;BME280;27370;42.764;23.432;2022-11-21T01:56:17;94134.50;;;10.71;100.00
41686;BME280;27370;42.764;23.432;2022-11-21T01:58:44;94161.31;;;10.79;100.00
41686;BME280;27370;42.764;23.432;2022-11-21T02:01:10;94172.88;;;10.79;100.00
41686;BME280;27370;42.764;23.432;2022-11-21T02:03:39;94167.53;;;10.88;100.00
41686;BME280;27370;42.764;23.432;2022-11-21T02:06:07;94174.47;;;10.89;100.00
41686;BME280;27370;42.764;23.432;2022-11-21T02:08:35;94173.34;;;11.09;100.00
41686;BME280;27370;42.764;23.432;2022-11-21T02:13:27;94160.44;;;11.13;100.00
41686;BME280;27370;42.764;23.432;2022-11-21T02:15:52;94177.25;;;11.08;100.00
41686;BME280;27370;42.764;23.432;2022-11-21T02:18:18;94182.88;;;11.13;100.00
41686;BME280;27370;42.764;23.432;2022-11-21T02:20:45;94166.38;;;10.98;100.00
41686;BME280;27370;42.764;23.432;2022-11-21T02:25:52;94176.94;;;11.05;100.00
41686;BME280;27370;42.764;23.432;2022-11-21T02:28:20;94162.84;;;11.11;100.00
41686;BME280;27370;42.764;23.432;2022-11-21T02:30:48;94174.63;;;10.95;100.00
41686;BME280;27370;42.764;23.432;2022-11-21T02:33:13;94167.47;;;10.79;100.00
41686;BME280;27370;42.764;23.432;2022-11-21T02:35:40;94159.88;;;10.87;100.00
41686;BME280;27370;42.764;23.432;2022-11-21T02:38:12;94161.88;;;10.73;100.00
41686;BME280;27370;42.764;23.432;2022-11-21T02:40:44;94171.56;;;10.84;100.00
41686;BME280;27370;42.764;23.432;2022-11-21T02:45:40;94154.66;;;11.01;100.00
41686;BME280;27370;42.764;23.432;2022-11-21T02:48:07;94136.50;;;10.58;100.00
41686;BME280;27370;42.764;23.432;2022-11-21T02:50:35;94142.97;;;10.83;100.00
41686;BME280;27370;42.764;23.432;2022-11-21T02:53:01;94154.56;;;10.83;100.00
41686;BME280;27370;42.764;23.432;2022-11-21T02:55:27;94151.81;;;10.74;100.00
41686;BME280;27370;42.764;23.432;2022-11-21T02:57:53;94141.25;;;10.98;100.00
41686;BME280;27370;42.764;23.432;2022-11-21T03:00:19;94133.19;;;10.85;100.00
41686;BME280;27370;42.764;23.432;2022-11-21T03:02:45;94139.09;;;10.62;100.00
41686;BME280;27370;42.764;23.432;2022-11-21T03:05:13;94123.47;;;10.88;100.00
41686;BME280;27370;42.764;23.432;2022-11-21T03:07:39;94120.28;;;10.58;100.00
41686;BME280;27370;42.764;23.432;2022-11-21T03:10:05;94106.72;;;10.58;100.00
41686;BME280;27370;42.764;23.432;2022-11-21T03:12:31;94119.31;;;10.74;100.00
41686;BME280;27370;42.764;23.432;2022-11-21T03:14:56;94113.78;;;10.56;100.00
41686;BME280;27370;42.764;23.432;2022-11-21T03:17:22;94118.16;;;10.84;100.00
41686;BME280;27370;42.764;23.432;2022-11-21T03:19:47;94135.00;;;10.57;100.00
41686;BME280;27370;42.764;23.432;2022-11-21T03:22:14;94121.44;;;10.79;100.00
41686;BME280;27370;42.764;23.432;2022-11-21T03:24:40;94114.09;;;10.58;100.00
41686;BME280;27370;42.764;23.432;2022-11-21T03:27:06;94117.97;;;10.79;100.00
41686;BME280;27370;42.764;23.432;2022-11-21T03:29:31;94114.47;;;10.69;100.00
41686;BME280;27370;42.764;23.432;2022-11-21T03:31:57;94116.66;;;10.83;100.00
41686;BME280;27370;42.764;23.432;2022-11-21T03:34:22;94116.78;;;10.80;100.00
41686;BME280;27370;42.764;23.432;2022-11-21T03:36:49;94114.09;;;10.58;100.00
41686;BME280;27370;42.764;23.432;2022-11-21T03:39:15;94097.13;;;10.88;100.00
41686;BME280;27370;42.764;23.432;2022-11-21T03:41:40;94123.94;;;10.95;100.00
41686;BME280;27370;42.764;23.432;2022-11-21T03:44:08;94108.47;;;11.05;100.00
41686;BME280;27370;42.764;23.432;2022-11-21T03:46:36;94095.66;;;10.96;100.00
41686;BME280;27370;42.764;23.432;2022-11-21T03:49:03;94093.53;;;10.91;100.00
41686;BME280;27370;42.764;23.432;2022-11-21T03:51:30;94110.72;;;10.97;100.00
41686;BME280;27370;42.764;23.432;2022-11-21T03:53:56;94110.34;;;10.86;100.00
41686;BME280;27370;42.764;23.432;2022-11-21T03:56:21;94121.25;;;11.04;100.00
41686;BME280;27370;42.764;23.432;2022-11-21T03:58:47;94105.00;;;11.04;100.00
41686;BME280;27370;42.764;23.432;2022-11-21T04:01:13;94111.72;;;11.31;100.00
41686;BME280;27370;42.764;23.432;2022-11-21T04:03:40;94096.81;;;11.26;100.00
41686;BME280;27370;42.764;23.432;2022-11-21T04:06:06;94116.50;;;11.58;100.00
41686;BME280;27370;42.764;23.432;2022-11-21T04:08:32;94121.72;;;11.52;100.00
41686;BME280;27370;42.764;23.432;2022-11-21T04:10:57;94122.25;;;11.29;100.00
41686;BME280;27370;42.764;23.432;2022-11-21T04:13:23;94108.03;;;11.07;100.00
41686;BME280;27370;42.764;23.432;2022-11-21T04:15:48;94107.25;;;10.97;100.00
41686;BME280;27370;42.764;23.432;2022-11-21T04:18:14;94105.00;;;11.04;100.00
41686;BME280;27370;42.764;23.432;2022-11-21T04:20:39;94109.91;;;11.28;100.00
41686;BME280;27370;42.764;23.432;2022-11-21T04:23:05;94105.75;;;11.45;100.00
41686;BME280;27370;42.764;23.432;2022-11-21T04:25:31;94115.78;;;11.26;100.00
41686;BME280;27370;42.764;23.432;2022-11-21T04:28:01;94121.91;;;11.58;100.00
41686;BME280;27370;42.764;23.432;2022-11-21T04:30:28;94122.28;;;11.78;100.00
41686;BME280;27370;42.764;23.432;2022-11-21T04:32:54;94127.34;;;11.67;100.00
41686;BME280;27370;42.764;23.432;2022-11-21T04:35:21;94117.19;;;11.49;100.00
41686;BME280;27370;42.764;23.432;2022-11-21T04:37:47;94127.28;;;11.49;100.00
41686;BME280;27370;42.764;23.432;2022-11-21T04:40:13;94134.25;;;11.10;100.00
41686;BME280;27370;42.764;23.432;2022-11-21T04:42:46;94114.09;;;11.20;100.00
41686;BME280;27370;42.764;23.432;2022-11-21T04:45:13;94147.56;;;10.95;100.00
41686;BME280;27370;42.764;23.432;2022-11-21T04:47:40;94158.59;;;10.57;100.00
41686;BME280;27370;42.764;23.432;2022-11-21T04:50:06;94121.13;;;10.77;100.00
41686;BME280;27370;42.764;23.432;2022-11-21T04:52:33;94142.97;;;10.61;100.00
41686;BME280;27370;42.764;23.432;2022-11-21T04:54:59;94135.19;;;10.63;100.00
41686;BME280;27370;42.764;23.432;2022-11-21T04:57:26;94150.16;;;10.55;100.00
41686;BME280;27370;42.764;23.432;2022-11-21T04:59:53;94138.66;;;10.41;100.00
41686;BME280;27370;42.764;23.432;2022-11-21T05:02:19;94156.91;;;10.28;100.00
41686;BME280;27370;42.764;23.432;2022-11-21T05:04:45;94145.84;;;10.01;100.00
41686;BME280;27370;42.764;23.432;2022-11-21T05:07:10;94149.84;;;9.96;100.00
41686;BME280;27370;42.764;23.432;2022-11-21T05:09:36;94123.63;;;10.06;100.00
41686;BME280;27370;42.764;23.432;2022-11-21T05:12:01;94142.53;;;10.19;100.00
41686;BME280;27370;42.764;23.432;2022-11-21T05:14:46;94143.88;;;10.01;100.00
41686;BME280;27370;42.764;23.432;2022-11-21T05:17:12;94152.75;;;10.02;100.00
41686;BME280;27370;42.764;23.432;2022-11-21T05:19:37;94134.72;;;9.86;100.00
41686;BME280;27370;42.764;23.432;2022-11-21T05:22:03;94140.50;;;9.75;100.00
41686;BME280;27370;42.764;23.432;2022-11-21T05:24:28;94152.00;;;9.41;100.00
41686;BME280;27370;42.764;23.432;2022-11-21T05:26:54;94164.53;;;9.23;100.00
41686;BME280;27370;42.764;23.432;2022-11-21T05:29:20;94169.06;;;9.13;100.00
41686;BME280;27370;42.764;23.432;2022-11-21T05:31:45;94181.25;;;8.92;100.00
41686;BME280;27370;42.764;23.432;2022-11-21T05:34:11;94170.25;;;9.12;100.00
41686;BME280;27370;42.764;23.432;2022-11-21T05:36:36;94196.50;;;9.11;100.00
41686;BME280;27370;42.764;23.432;2022-11-21T05:39:02;94195.31;;;9.12;100.00
41686;BME280;27370;42.764;23.432;2022-11-21T05:41:28;94217.31;;;8.85;100.00
41686;BME280;27370;42.764;23.432;2022-11-21T05:43:54;94221.53;;;8.57;100.00
41686;BME280;27370;42.764;23.432;2022-11-21T05:46:21;94223.94;;;8.68;100.00
41686;BME280;27370;42.764;23.432;2022-11-21T05:48:48;94237.53;;;8.65;100.00
41686;BME280;27370;42.764;23.432;2022-11-21T05:51:15;94227.06;;;8.67;100.00
41686;BME280;27370;42.764;23.432;2022-11-21T05:53:41;94240.72;;;8.14;100.00
41686;BME280;27370;42.764;23.432;2022-11-21T05:56:09;94252.50;;;8.37;100.00
41686;BME280;27370;42.764;23.432;2022-11-21T05:58:35;94256.66;;;8.41;100.00
41686;BME280;27370;42.764;23.432;2022-11-21T06:01:02;94258.06;;;8.46;100.00
41686;BME280;27370;42.764;23.432;2022-11-21T06:03:30;94261.19;;;8.28;100.00
41686;BME280;27370;42.764;23.432;2022-11-21T06:06:07;94288.25;;;8.08;100.00
41686;BME280;27370;42.764;23.432;2022-11-21T06:08:38;94297.09;;;7.92;100.00
41686;BME280;27370;42.764;23.432;2022-11-21T06:11:05;94280.91;;;7.76;100.00
41686;BME280;27370;42.764;23.432;2022-11-21T06:13:31;94284.72;;;7.79;100.00
41686;BME280;27370;42.764;23.432;2022-11-21T06:18:27;94279.03;;;7.57;100.00
41686;BME280;27370;42.764;23.432;2022-11-21T06:20:53;94271.47;;;7.52;100.00
41686;BME280;27370;42.764;23.432;2022-11-21T06:23:24;94271.00;;;7.37;100.00
41686;BME280;27370;42.764;23.432;2022-11-21T06:25:58;94279.22;;;7.50;100.00
41686;BME280;27370;42.764;23.432;2022-11-21T06:28:34;94284.25;;;7.48;100.00
41686;BME280;27370;42.764;23.432;2022-11-21T06:31:04;94302.34;;;7.47;100.00
41686;BME280;27370;42.764;23.432;2022-11-21T06:33:30;94312.06;;;7.41;100.00
41686;BME280;27370;42.764;23.432;2022-11-21T06:35:55;94303.41;;;7.33;100.00
41686;BME280;27370;42.764;23.432;2022-11-21T06:38:21;94305.66;;;7.35;100.00
41686;BME280;27370;42.764;23.432;2022-11-21T06:40:46;94319.28;;;7.28;100.00
41686;BME280;27370;42.764;23.432;2022-11-21T06:43:12;94316.53;;;7.31;100.00
41686;BME280;27370;42.764;23.432;2022-11-21T06:45:37;94335.56;;;7.41;100.00
41686;BME280;27370;42.764;23.432;2022-11-21T06:48:03;94337.63;;;7.53;100.00
41686;BME280;27370;42.764;23.432;2022-11-21T06:50:29;94326.22;;;7.45;100.00
41686;BME280;27370;42.764;23.432;2022-11-21T06:52:59;94341.38;;;7.19;100.00
41686;BME280;27370;42.764;23.432;2022-11-21T06:55:25;94341.25;;;7.26;100.00
41686;BME280;27370;42.764;23.432;2022-11-21T06:58:00;94345.72;;;7.13;100.00
41686;BME280;27370;42.764;23.432;2022-11-21T07:00:26;94357.31;;;7.10;100.00
41686;BME280;27370;42.764;23.432;2022-11-21T07:02:59;94371.53;;;7.11;100.00
41686;BME280;27370;42.764;23.432;2022-11-21T07:05:26;94374.13;;;6.94;100.00
41686;BME280;27370;42.764;23.432;2022-11-21T07:07:57;94376.41;;;6.96;100.00
41686;BME280;27370;42.764;23.432;2022-11-21T07:10:22;94387.66;;;6.91;100.00
41686;BME280;27370;42.764;23.432;2022-11-21T07:12:48;94382.34;;;6.87;100.00
41686;BME280;27370;42.764;23.432;2022-11-21T07:15:32;94383.94;;;6.85;100.00
41686;BME280;27370;42.764;23.432;2022-11-21T07:17:57;94392.44;;;6.60;100.00
41686;BME280;27370;42.764;23.432;2022-11-21T07:20:23;94396.94;;;6.66;100.00
41686;BME280;27370;42.764;23.432;2022-11-21T07:22:53;94393.53;;;6.62;100.00
41686;BME280;27370;42.764;23.432;2022-11-21T07:25:20;94411.47;;;6.69;100.00
41686;BME280;27370;42.764;23.432;2022-11-21T07:27:45;94409.78;;;6.55;100.00
41686;BME280;27370;42.764;23.432;2022-11-21T07:30:12;94422.53;;;6.51;100.00
41686;BME280;27370;42.764;23.432;2022-11-21T07:32:37;94429.41;;;6.52;100.00
41686;BME280;27370;42.764;23.432;2022-11-21T07:35:03;94443.34;;;6.20;100.00
41686;BME280;27370;42.764;23.432;2022-11-21T07:37:29;94464.28;;;6.05;100.00
41686;BME280;27370;42.764;23.432;2022-11-21T07:39:54;94464.78;;;5.97;100.00
41686;BME280;27370;42.764;23.432;2022-11-21T07:42:20;94462.91;;;5.94;100.00
41686;BME280;27370;42.764;23.432;2022-11-21T07:44:45;94461.78;;;5.91;100.00
41686;BME280;27370;42.764;23.432;2022-11-21T07:47:11;94475.22;;;5.88;100.00
41686;BME280;27370;42.764;23.432;2022-11-21T07:49:36;94506.03;;;5.79;100.00
41686;BME280;27370;42.764;23.432;2022-11-21T07:52:02;94491.78;;;5.82;100.00
41686;BME280;27370;42.764;23.432;2022-11-21T07:54:27;94491.03;;;5.82;100.00
41686;BME280;27370;42.764;23.432;2022-11-21T07:56:53;94497.91;;;5.83;100.00
41686;BME280;27370;42.764;23.432;2022-11-21T07:59:18;94519.41;;;5.83;100.00
41686;BME280;27370;42.764;23.432;2022-11-21T08:01:44;94517.44;;;5.87;100.00
41686;BME280;27370;42.764;23.432;2022-11-21T08:04:09;94530.16;;;5.83;100.00
41686;BME280;27370;42.764;23.432;2022-11-21T08:06:35;94536.94;;;5.98;100.00
41686;BME280;27370;42.764;23.432;2022-11-21T08:09:00;94529.63;;;5.99;100.00
41686;BME280;27370;42.764;23.432;2022-11-21T08:11:26;94547.41;;;6.20;100.00
41686;BME280;27370;42.764;23.432;2022-11-21T08:13:51;94548.38;;;6.02;100.00
41686;BME280;27370;42.764;23.432;2022-11-21T08:16:17;94542.25;;;6.02;100.00
41686;BME280;27370;42.764;23.432;2022-11-21T08:18:42;94551.94;;;5.96;100.00
41686;BME280;27370;42.764;23.432;2022-11-21T08:21:08;94565.22;;;6.06;100.00
41686;BME280;27370;42.764;23.432;2022-11-21T08:23:33;94567.16;;;6.06;100.00
41686;BME280;27370;42.764;23.432;2022-11-21T08:25:59;94566.28;;;6.16;100.00
41686;BME280;27370;42.764;23.432;2022-11-21T08:28:24;94561.13;;;6.29;100.00
41686;BME280;27370;42.764;23.432;2022-11-21T08:30:50;94571.16;;;6.25;100.00
41686;BME280;27370;42.764;23.432;2022-11-21T08:33:15;94573.78;;;6.28;100.00
41686;BME280;27370;42.764;23.432;2022-11-21T08:35:41;94574.66;;;6.22;100.00
41686;BME280;27370;42.764;23.432;2022-11-21T08:38:07;94564.16;;;6.31;100.00
41686;BME280;27370;42.764;23.432;2022-11-21T08:40:34;94579.66;;;6.50;100.00
41686;BME280;27370;42.764;23.432;2022-11-21T08:43:03;94581.00;;;6.65;100.00
41686;BME280;27370;42.764;23.432;2022-11-21T08:45:29;94587.75;;;6.77;100.00
41686;BME280;27370;42.764;23.432;2022-11-21T08:47:55;94595.22;;;6.93;100.00
41686;BME280;27370;42.764;23.432;2022-11-21T08:50:21;94591.47;;;6.87;100.00
41686;BME280;27370;42.764;23.432;2022-11-21T08:52:47;94597.84;;;6.69;100.00
41686;BME280;27370;42.764;23.432;2022-11-21T08:55:13;94593.47;;;6.52;100.00
41686;BME280;27370;42.764;23.432;2022-11-21T08:57:39;94593.41;;;6.25;100.00
41686;BME280;27370;42.764;23.432;2022-11-21T09:00:07;94591.28;;;6.09;100.00
41686;BME280;27370;42.764;23.432;2022-11-21T09:02:33;94604.94;;;6.26;100.00
41686;BME280;27370;42.764;23.432;2022-11-21T09:04:59;94599.88;;;6.31;100.00
41686;BME280;27370;42.764;23.432;2022-11-21T09:07:24;94608.44;;;6.23;100.00
41686;BME280;27370;42.764;23.432;2022-11-21T09:09:50;94610.97;;;6.37;100.00
41686;BME280;27370;42.764;23.432;2022-11-21T09:12:16;94604.84;;;6.33;100.00
41686;BME280;27370;42.764;23.432;2022-11-21T09:14:41;94607.31;;;6.51;100.00
41686;BME280;27370;42.764;23.432;2022-11-21T09:17:25;94613.03;;;6.53;100.00
41686;BME280;27370;42.764;23.432;2022-11-21T09:20:10;94614.81;;;6.36;100.00
41686;BME280;27370;42.764;23.432;2022-11-21T09:22:35;94613.34;;;6.28;100.00
41686;BME280;27370;42.764;23.432;2022-11-21T09:25:01;94622.31;;;6.18;100.00
41686;BME280;27370;42.764;23.432;2022-11-21T09:27:26;94609.38;;;6.05;100.00
41686;BME280;27370;42.764;23.432;2022-11-21T09:29:52;94606.69;;;6.05;100.00
41686;BME280;27370;42.764;23.432;2022-11-21T09:32:18;94621.44;;;5.87;100.00
41686;BME280;27370;42.764;23.432;2022-11-21T09:34:43;94618.28;;;5.58;100.00
41686;BME280;27370;42.764;23.432;2022-11-21T09:37:09;94614.94;;;5.43;100.00
41686;BME280;27370;42.764;23.432;2022-11-21T09:39:34;94611.53;;;5.39;100.00
41686;BME280;27370;42.764;23.432;2022-11-21T09:47:36;94597.69;;;5.47;100.00
41686;BME280;27370;42.764;23.432;2022-11-21T09:50:46;94603.34;;;5.98;100.00
41686;BME280;27370;42.764;23.432;2022-11-21T09:55:53;94589.66;;;6.19;100.00
41686;BME280;27370;42.764;23.432;2022-11-21T09:58:28;94593.25;;;6.05;100.00
41686;BME280;27370;42.764;23.432;2022-11-21T10:00:55;94599.63;;;5.81;100.00
41686;BME280;27370;42.764;23.432;2022-11-21T10:03:24;94607.66;;;5.84;100.00
41686;BME280;27370;42.764;23.432;2022-11-21T10:05:58;94606.53;;;5.82;100.00
41686;BME280;27370;42.764;23.432;2022-11-21T10:14:14;94612.22;;;5.50;100.00
41686;BME280;27370;42.764;23.432;2022-11-21T10:25:11;94647.56;;;5.45;100.00
41686;BME280;27370;42.764;23.432;2022-11-21T10:28:02;94643.72;;;5.42;100.00
41686;BME280;27370;42.764;23.432;2022-11-21T10:30:29;94647.19;;;5.39;100.00
41686;BME280;27370;42.764;23.432;2022-11-21T10:32:56;94646.81;;;5.41;100.00
41686;BME280;27370;42.764;23.432;2022-11-21T10:35:53;94651.78;;;5.42;100.00
41686;BME280;27370;42.764;23.432;2022-11-21T10:38:22;94638.34;;;5.46;100.00
41686;BME280;27370;42.764;23.432;2022-11-21T10:41:16;94640.50;;;5.62;100.00
41686;BME280;27370;42.764;23.432;2022-11-21T10:44:00;94660.34;;;5.75;100.00
41686;BME280;27370;42.764;23.432;2022-11-21T10:46:59;94651.47;;;5.78;100.00
41686;BME280;27370;42.764;23.432;2022-11-21T10:49:28;94641.84;;;5.80;100.00
41686;BME280;27370;42.764;23.432;2022-11-21T10:52:13;94647.56;;;5.90;100.00
41686;BME280;27370;42.764;23.432;2022-11-21T10:57:30;94654.25;;;6.08;100.00
41686;BME280;27370;42.764;23.432;2022-11-21T11:00:01;94657.22;;;6.21;100.00
41686;BME280;27370;42.764;23.432;2022-11-21T11:02:27;94648.06;;;6.15;100.00
41686;BME280;27370;42.764;23.432;2022-11-21T11:05:28;94650.53;;;6.33;100.00
41686;BME280;27370;42.764;23.432;2022-11-21T11:10:30;94662.69;;;6.10;100.00
41686;BME280;27370;42.764;23.432;2022-11-21T11:12:56;94660.31;;;6.20;100.00
41686;BME280;27370;42.764;23.432;2022-11-21T11:16:19;94643.69;;;5.94;100.00
41686;BME280;27370;42.764;23.432;2022-11-21T11:18:53;94644.00;;;6.00;100.00
41686;BME280;27370;42.764;23.432;2022-11-21T11:21:23;94650.06;;;6.07;100.00
41686;BME280;27370;42.764;23.432;2022-11-21T11:23:51;94652.09;;;5.96;100.00
41686;BME280;27370;42.764;23.432;2022-11-21T11:26:23;94646.66;;;6.03;100.00
41686;BME280;27370;42.764;23.432;2022-11-21T11:28:49;94647.56;;;5.90;100.00
41686;BME280;27370;42.764;23.432;2022-11-21T11:31:15;94659.47;;;5.85;100.00
41686;BME280;27370;42.764;23.432;2022-11-21T11:38:56;94657.91;;;5.91;100.00
41686;BME280;27370;42.764;23.432;2022-11-21T11:49:29;94655.56;;;6.65;100.00
41686;BME280;27370;42.764;23.432;2022-11-21T11:51:59;94656.41;;;6.89;100.00
41686;BME280;27370;42.764;23.432;2022-11-21T11:54:41;94662.81;;;7.25;100.00
41686;BME280;27370;42.764;23.432;2022-11-21T11:57:11;94664.00;;;7.48;100.00
41686;BME280;27370;42.764;23.432;2022-11-21T11:59:40;94671.38;;;7.67;100.00
41686;BME280;27370;42.764;23.432;2022-11-21T12:02:22;94671.34;;;7.71;100.00
41686;BME280;27370;42.764;23.432;2022-11-21T12:04:56;94670.38;;;7.57;100.00
41686;BME280;27370;42.764;23.432;2022-11-21T12:07:46;94681.44;;;7.40;100.00
41686;BME280;27370;42.764;23.432;2022-11-21T12:10:28;94688.13;;;7.01;100.00
41686;BME280;27370;42.764;23.432;2022-11-21T12:13:02;94678.91;;;7.02;100.00
41686;BME280;27370;42.764;23.432;2022-11-21T12:15:36;94675.13;;;6.96;100.00
41686;BME280;27370;42.764;23.432;2022-11-21T12:23:15;94679.53;;;6.83;100.00
41686;BME280;27370;42.764;23.432;2022-11-21T12:28:29;94689.31;;;6.69;100.00
41686;BME280;27370;42.764;23.432;2022-11-21T12:31:18;94697.94;;;6.88;100.00
41686;BME280;27370;42.764;23.432;2022-11-21T12:34:29;94694.59;;;7.07;100.00
41686;BME280;27370;42.764;23.432;2022-11-21T12:40:10;94706.00;;;6.88;100.00
41686;BME280;27370;42.764;23.432;2022-11-21T12:49:43;94693.53;;;7.55;100.00
41686;BME280;27370;42.764;23.432;2022-11-21T13:00:47;94700.28;;;8.33;100.00
41686;BME280;27370;42.764;23.432;2022-11-21T13:05:51;94696.22;;;8.02;100.00
41686;BME280;27370;42.764;23.432;2022-11-21T13:08:25;94710.75;;;7.84;100.00
41686;BME280;27370;42.764;23.432;2022-11-21T13:20:31;94689.47;;;7.16;100.00
41686;BME280;27370;42.764;23.432;2022-11-21T13:23:02;94687.47;;;7.20;100.00
41686;BME280;27370;42.764;23.432;2022-11-21T13:30:57;94705.34;;;6.76;100.00
41686;BME280;27370;42.764;23.432;2022-11-21T13:44:41;94697.72;;;6.41;100.00
41686;BME280;27370;42.764;23.432;2022-11-21T13:55:40;94697.53;;;6.55;100.00
41686;BME280;27370;42.764;23.432;2022-11-21T13:58:16;94705.38;;;6.42;100.00
41686;BME280;27370;42.764;23.432;2022-11-21T14:01:18;94697.00;;;6.33;100.00
41686;BME280;27370;42.764;23.432;2022-11-21T14:06:40;94700.84;;;6.36;100.00
41686;BME280;27370;42.764;23.432;2022-11-21T14:14:37;94707.28;;;6.04;100.00
41686;BME280;27370;42.764;23.432;2022-11-21T14:17:28;94707.22;;;6.15;100.00
41686;BME280;27370;42.764;23.432;2022-11-21T14:20:00;94708.22;;;6.28;100.00
41686;BME280;27370;42.764;23.432;2022-11-21T14:25:00;94699.94;;;6.08;100.00
41686;BME280;27370;42.764;23.432;2022-11-21T14:27:37;94707.81;;;5.92;100.00
41686;BME280;27370;42.764;23.432;2022-11-21T14:30:04;94705.44;;;5.98;100.00
41686;BME280;27370;42.764;23.432;2022-11-21T14:32:30;94706.47;;;5.63;100.00
41686;BME280;27370;42.764;23.432;2022-11-21T14:35:10;94702.69;;;5.57;100.00
41686;BME280;27370;42.764;23.432;2022-11-21T14:37:42;94707.31;;;5.52;100.00
41686;BME280;27370;42.764;23.432;2022-11-21T14:40:14;94710.38;;;5.54;100.00
41686;BME280;27370;42.764;23.432;2022-11-21T14:42:44;94704.25;;;5.54;100.00
41686;BME280;27370;42.764;23.432;2022-11-21T14:45:22;94700.81;;;5.50;100.00
41686;BME280;27370;42.764;23.432;2022-11-21T14:47:49;94698.50;;;5.52;100.00
41686;BME280;27370;42.764;23.432;2022-11-21T14:50:27;94704.91;;;5.69;100.00
41686;BME280;27370;42.764;23.432;2022-11-21T14:52:53;94685.47;;;5.50;100.00
41686;BME280;27370;42.764;23.432;2022-11-21T14:55:25;94700.38;;;5.59;100.00
41686;BME280;27370;42.764;23.432;2022-11-21T14:57:52;94708.84;;;5.53;100.00
41686;BME280;27370;42.764;23.432;2022-11-21T15:00:20;94722.00;;;5.37;100.00
41686;BME280;27370;42.764;23.432;2022-11-21T15:02:51;94725.84;;;5.36;100.00
41686;BME280;27370;42.764;23.432;2022-11-21T15:05:18;94733.59;;;5.23;100.00